Terminal Aerodrome Forecast
Issued by NWS

Home | Current Version | Previous Version | Text Only | Print | Product List | Glossary On
Versions: 1 2 3 4 5 6 7 8 9 10 11 12 13
000
FTUS45 KABQ 281739
TAFSAF
TAF
KSAF 281739Z 2818/2918 18015G25KT P6SM BKN080
     FM282000 20018G28KT P6SM VCSH OVC070
     FM290130 32009KT P6SM OVC060
     FM290400 32008KT P6SM VCSH OVC050
     FM291500 28011KT P6SM SCT060=

USA.gov is the U.S. government's official web portal to all federal, state and local government web resources and services.